Time;durP1;ratioP1;P1;durP2;ratioP2;P2;SDS_P1;SDS_P2;PMS_P1;PMS_P2;Temp;Humidity;BMP_temperature;BMP_pressure;BME280_temperature;BME280_humidity;BME280_pressure;Samples;Min_cycle;Max_cycle;Signal;HPM_P1;HPM_P2
2023/12/03 00:00:10;;;;;;;2.27;2.10;;;;;-4.50;96189.00;;;;5075598;28;20270;-61
2023/12/03 00:02:38;;;;;;;2.17;2.07;;;;;-4.50;96186.00;;;;5057654;28;20671;-61
2023/12/03 00:05:06;;;;;;;1.40;1.37;;;;;-4.60;96180.00;;;;5075029;28;20624;-61
2023/12/03 00:07:34;;;;;;;2.70;2.50;;;;;-4.40;96192.00;;;;5074861;28;20202;-61
2023/12/03 00:10:02;;;;;;;1.87;1.77;;;;;-4.40;96193.00;;;;5075092;28;20198;-61
2023/12/03 00:12:30;;;;;;;1.60;1.50;;;;;-4.60;96187.00;;;;5074741;28;20211;-60
2023/12/03 00:14:58;;;;;;;1.33;1.23;;;;;-4.50;96195.00;;;;5074811;28;20286;-60
2023/12/03 00:17:26;;;;;;;4.93;2.23;;;;;-4.40;96198.00;;;;5073680;28;20234;-60
2023/12/03 00:19:53;;;;;;;1.43;1.40;;;;;-4.40;96192.00;;;;5075270;28;20190;-60
2023/12/03 00:22:21;;;;;;;2.27;1.83;;;;;-4.30;96183.00;;;;5074419;28;20224;-60
2023/12/03 00:24:49;;;;;;;3.13;2.13;;;;;-4.40;96191.00;;;;5074580;28;20184;-60
2023/12/03 00:27:16;;;;;;;3.00;2.80;;;;;-4.40;96202.00;;;;5074377;28;20201;-60
2023/12/03 00:29:45;;;;;;;2.30;2.10;;;;;-4.50;96197.00;;;;5074477;28;20201;-61
2023/12/03 00:32:12;;;;;;;2.93;2.60;;;;;-4.50;96203.00;;;;5074601;28;20207;-61
2023/12/03 00:34:40;;;;;;;2.00;1.90;;;;;-4.40;96204.00;;;;5074311;28;20198;-61
2023/12/03 00:37:07;;;;;;;1.80;1.63;;;;;-4.50;96213.00;;;;5074509;28;20197;-61
2023/12/03 00:39:34;;;;;;;3.43;2.87;;;;;-4.40;96207.00;;;;5074860;28;20278;-61
2023/12/03 00:42:02;;;;;;;2.60;2.33;;;;;-4.30;96200.00;;;;5074013;28;20562;-61
2023/12/03 00:44:29;;;;;;;2.07;1.90;;;;;-4.30;96206.00;;;;5074063;28;20264;-61
2023/12/03 00:46:58;;;;;;;2.90;2.67;;;;;-4.30;96205.00;;;;5073903;28;20283;-61
2023/12/03 00:49:25;;;;;;;3.23;2.70;;;;;-4.20;96209.00;;;;5056048;28;20201;-61
2023/12/03 00:51:53;;;;;;;1.70;1.60;;;;;-4.10;96229.00;;;;5073925;28;20574;-61
2023/12/03 00:54:20;;;;;;;4.10;2.80;;;;;-4.10;96221.00;;;;5073820;28;20193;-61
2023/12/03 00:56:48;;;;;;;2.60;2.40;;;;;-4.00;96214.00;;;;5073935;28;20293;-61
2023/12/03 00:59:15;;;;;;;4.43;2.07;;;;;-4.20;96218.00;;;;5073782;28;20202;-61
2023/12/03 01:01:42;;;;;;;3.57;2.53;;;;;-4.20;96209.00;;;;5073517;28;20222;-61
2023/12/03 01:04:11;;;;;;;3.50;2.43;;;;;-4.30;96215.00;;;;5073673;28;20196;-61
2023/12/03 01:06:40;;;;;;;5.37;1.83;;;;;-4.20;96217.00;;;;5073732;28;20264;-61
2023/12/03 01:09:08;;;;;;;4.97;1.97;;;;;-4.50;96219.00;;;;5073743;28;20224;-61
2023/12/03 01:11:40;;;;;;;2.07;1.93;;;;;-4.60;96216.00;;;;5073410;28;20208;-61
2023/12/03 01:14:08;;;;;;;1.07;1.07;;;;;-4.40;96222.00;;;;5073805;28;20185;-61
2023/12/03 01:16:38;;;;;;;1.77;1.67;;;;;-4.40;96227.00;;;;5074045;28;20246;-61
2023/12/03 01:19:05;;;;;;;2.83;2.60;;;;;-4.40;96227.00;;;;5073984;28;20200;-61
2023/12/03 01:21:34;;;;;;;2.70;2.37;;;;;-4.40;96222.00;;;;5073736;28;20231;-61
2023/12/03 01:24:02;;;;;;;1.83;1.73;;;;;-4.30;96239.00;;;;5073570;28;20573;-61
2023/12/03 01:26:29;;;;;;;2.77;2.57;;;;;-4.20;96233.00;;;;5073691;28;20189;-61
2023/12/03 01:28:58;;;;;;;4.90;3.03;;;;;-4.30;96250.00;;;;5073877;28;20197;-61
2023/12/03 01:31:25;;;;;;;1.87;1.77;;;;;-4.20;96243.00;;;;5073477;28;20197;-61
2023/12/03 01:33:52;;;;;;;2.27;2.07;;;;;-4.20;96248.00;;;;5073507;28;20190;-61
2023/12/03 01:36:20;;;;;;;1.43;1.40;;;;;-4.20;96252.00;;;;5073242;28;20209;-61
2023/12/03 01:38:49;;;;;;;3.70;2.63;;;;;-4.20;96256.00;;;;5073276;28;20207;-61
2023/12/03 01:41:16;;;;;;;3.80;2.33;;;;;-4.10;96255.00;;;;5073398;28;20712;-61
2023/12/03 01:43:52;;;;;;;5.10;1.90;;;;;-4.30;96263.00;;;;5073619;28;20193;-61
2023/12/03 01:46:21;;;;;;;2.40;2.30;;;;;-4.20;96260.00;;;;5055556;28;20198;-61
2023/12/03 01:48:49;;;;;;;1.73;1.63;;;;;-4.40;96277.00;;;;5073563;28;20285;-61
2023/12/03 01:51:17;;;;;;;3.70;2.77;;;;;-4.40;96264.00;;;;5073274;28;20193;-61
2023/12/03 01:53:44;;;;;;;2.33;2.13;;;;;-4.50;96275.00;;;;5073473;28;20195;-61
2023/12/03 01:56:14;;;;;;;2.40;2.20;;;;;-4.60;96261.00;;;;5073206;28;20197;-60
2023/12/03 01:58:41;;;;;;;2.30;2.17;;;;;-4.50;96269.00;;;;5073521;28;20298;-60
2023/12/03 02:01:09;;;;;;;3.37;3.03;;;;;-4.80;96281.00;;;;5072779;28;20258;-60
2023/12/03 02:03:36;;;;;;;1.67;1.57;;;;;-4.80;96269.00;;;;5073061;28;20216;-60
2023/12/03 02:06:05;;;;;;;1.87;1.77;;;;;-4.90;96264.00;;;;5073281;28;20197;-60
2023/12/03 02:08:33;;;;;;;5.60;3.07;;;;;-4.80;96263.00;;;;5073040;28;20312;-60
2023/12/03 02:11:01;;;;;;;4.73;2.90;;;;;-4.60;96265.00;;;;5073313;28;20197;-61
2023/12/03 02:13:33;;;;;;;3.37;2.87;;;;;-4.40;96269.00;;;;5073508;28;20219;-61
2023/12/03 02:16:00;;;;;;;3.37;2.53;;;;;-4.40;96271.00;;;;5073330;28;20192;-60
2023/12/03 02:18:28;;;;;;;1.93;1.83;;;;;-4.30;96272.00;;;;5073160;28;20205;-61
2023/12/03 02:20:56;;;;;;;1.30;1.30;;;;;-4.40;96293.00;;;;5073605;28;20690;-61
2023/12/03 02:23:28;;;;;;;1.67;1.57;;;;;-4.90;96284.00;;;;5073558;28;20701;-61
2023/12/03 02:25:57;;;;;;;1.80;1.70;;;;;-4.90;96288.00;;;;5073245;28;20175;-61
2023/12/03 02:28:25;;;;;;;3.17;2.27;;;;;-4.80;96287.00;;;;5072804;28;20249;-61
2023/12/03 02:30:52;;;;;;;1.97;1.87;;;;;-4.80;96292.00;;;;5072899;28;20231;-60
2023/12/03 02:33:20;;;;;;;2.63;2.43;;;;;-4.60;96289.00;;;;5072438;28;20208;-59
2023/12/03 02:35:48;;;;;;;4.47;2.23;;;;;-4.60;96295.00;;;;5072655;28;20204;-59
2023/12/03 02:38:15;;;;;;;2.57;2.37;;;;;-4.60;96286.00;;;;5072960;28;20238;-62
2023/12/03 02:40:44;;;;;;;1.90;1.80;;;;;-4.50;96283.00;;;;5074218;28;20190;-60
2023/12/03 02:43:11;;;;;;;1.40;1.40;;;;;-4.80;96274.00;;;;5077052;28;20212;-60
2023/12/03 02:45:39;;;;;;;3.30;2.60;;;;;-4.80;96282.00;;;;5076586;28;20194;-59
2023/12/03 02:48:06;;;;;;;3.30;2.13;;;;;-4.70;96282.00;;;;5076245;28;20251;-60
2023/12/03 02:50:33;;;;;;;2.00;1.90;;;;;-4.60;96280.00;;;;5076545;28;20199;-61
2023/12/03 02:53:01;;;;;;;3.37;3.07;;;;;-4.80;96275.00;;;;5076032;28;20582;-60
2023/12/03 02:55:29;;;;;;;2.50;2.30;;;;;-4.80;96286.00;;;;5076141;28;20730;-60
2023/12/03 02:57:58;;;;;;;1.70;1.60;;;;;-4.70;96280.00;;;;5076569;28;20196;-61
2023/12/03 03:00:25;;;;;;;2.07;1.83;;;;;-4.80;96291.00;;;;5076865;28;20210;-61
2023/12/03 03:02:53;;;;;;;3.00;2.77;;;;;-4.70;96295.00;;;;5076738;28;20223;-61
2023/12/03 03:05:21;;;;;;;3.43;2.77;;;;;-4.80;96286.00;;;;5076292;28;20203;-61
2023/12/03 03:07:48;;;;;;;2.50;2.00;;;;;-4.90;96304.00;;;;5076015;28;20188;-61
2023/12/03 03:10:16;;;;;;;2.80;2.33;;;;;-4.90;96287.00;;;;5075939;28;20194;-61
2023/12/03 03:12:43;;;;;;;5.90;2.13;;;;;-5.00;96283.00;;;;5075803;28;20225;-61
2023/12/03 03:15:12;;;;;;;2.83;2.60;;;;;-5.10;96288.00;;;;5076198;28;20201;-61
2023/12/03 03:17:39;;;;;;;2.30;2.20;;;;;-5.00;96292.00;;;;5076092;28;20204;-61
2023/12/03 03:20:08;;;;;;;2.30;2.10;;;;;-5.00;96287.00;;;;5075710;28;20201;-61
2023/12/03 03:22:36;;;;;;;2.87;2.67;;;;;-5.00;96296.00;;;;5075536;28;20316;-61
2023/12/03 03:25:04;;;;;;;2.33;2.23;;;;;-5.00;96303.00;;;;5076185;28;20670;-61
2023/12/03 03:27:33;;;;;;;2.50;2.20;;;;;-5.00;96295.00;;;;5075452;28;20201;-61
2023/12/03 03:30:00;;;;;;;2.77;2.53;;;;;-5.10;96290.00;;;;5075541;28;20194;-61
2023/12/03 03:32:29;;;;;;;2.30;2.13;;;;;-5.00;96294.00;;;;5075478;28;20254;-61
2023/12/03 03:34:56;;;;;;;1.77;1.67;;;;;-4.90;96283.00;;;;5075361;28;20258;-61
2023/12/03 03:37:24;;;;;;;2.33;2.20;;;;;-4.90;96286.00;;;;5075660;28;20669;-61
2023/12/03 03:39:51;;;;;;;1.83;1.73;;;;;-5.00;96296.00;;;;5057953;28;20283;-61
2023/12/03 03:42:19;;;;;;;2.30;2.10;;;;;-5.00;96288.00;;;;5075483;28;20216;-61
2023/12/03 03:44:49;;;;;;;2.30;2.10;;;;;-5.00;96288.00;;;;5075202;28;20198;-62
2023/12/03 03:47:17;;;;;;;2.27;2.13;;;;;-5.10;96284.00;;;;5075223;28;20262;-60
2023/12/03 03:49:45;;;;;;;1.73;1.63;;;;;-5.10;96297.00;;;;5075193;28;20648;-60
2023/12/03 03:52:13;;;;;;;2.57;2.37;;;;;-5.20;96291.00;;;;5074953;28;20696;-61
2023/12/03 03:54:41;;;;;;;1.67;1.57;;;;;-5.20;96295.00;;;;5075069;28;20261;-61
2023/12/03 03:57:08;;;;;;;3.87;2.57;;;;;-5.30;96294.00;;;;5075016;28;20187;-61
2023/12/03 03:59:36;;;;;;;2.73;2.23;;;;;-5.40;96294.00;;;;5075950;28;20581;-60
2023/12/03 04:02:03;;;;;;;1.87;1.77;;;;;-5.30;96296.00;;;;5074776;28;20222;-60
2023/12/03 04:04:31;;;;;;;2.23;2.13;;;;;-5.40;96303.00;;;;5074912;28;20192;-60
2023/12/03 04:07:00;;;;;;;3.33;2.53;;;;;-5.50;96309.00;;;;5075609;28;20200;-60
2023/12/03 04:09:27;;;;;;;3.30;2.30;;;;;-5.60;96306.00;;;;5075181;28;20196;-60
2023/12/03 04:11:55;;;;;;;3.27;2.97;;;;;-5.60;96307.00;;;;5075419;28;20213;-60
2023/12/03 04:14:22;;;;;;;2.27;2.17;;;;;-5.70;96316.00;;;;5075535;28;20192;-60
2023/12/03 04:16:50;;;;;;;1.97;1.87;;;;;-5.80;96321.00;;;;5074769;28;20562;-60
2023/12/03 04:19:17;;;;;;;1.37;1.37;;;;;-5.80;96321.00;;;;5074948;28;20200;-60
2023/12/03 04:21:44;;;;;;;1.87;1.77;;;;;-5.80;96315.00;;;;5074972;28;20211;-60
2023/12/03 04:24:13;;;;;;;3.23;2.33;;;;;-5.90;96321.00;;;;5074884;28;20197;-60
2023/12/03 04:26:43;;;;;;;2.43;2.27;;;;;-5.90;96322.00;;;;5074864;28;20203;-61
2023/12/03 04:29:11;;;;;;;4.23;2.87;;;;;-6.00;96328.00;;;;5074858;28;20192;-60
2023/12/03 04:31:38;;;;;;;2.33;2.13;;;;;-5.90;96322.00;;;;5074406;28;20284;-60
2023/12/03 04:34:07;;;;;;;5.33;3.40;;;;;-5.90;96328.00;;;;5074654;28;20203;-60
2023/12/03 04:36:35;;;;;;;2.87;2.67;;;;;-5.90;96317.00;;;;5074474;28;20673;-60
2023/12/03 04:39:04;;;;;;;2.17;2.07;;;;;-5.90;96323.00;;;;5074225;28;20653;-60
2023/12/03 04:41:37;;;;;;;1.80;1.70;;;;;-5.90;96322.00;;;;5074258;28;20212;-60
2023/12/03 04:44:05;;;;;;;1.93;1.83;;;;;-6.00;96325.00;;;;5074441;28;20603;-60
2023/12/03 04:46:33;;;;;;;3.97;2.43;;;;;-6.10;96333.00;;;;5074080;28;20560;-60
2023/12/03 04:49:00;;;;;;;3.87;2.90;;;;;-6.10;96322.00;;;;5074301;28;20188;-60
2023/12/03 04:51:27;;;;;;;4.70;2.23;;;;;-6.20;96328.00;;;;5073941;28;20227;-60
2023/12/03 04:53:55;;;;;;;2.53;2.33;;;;;-6.20;96328.00;;;;5074293;28;20294;-59
2023/12/03 04:56:22;;;;;;;1.67;1.57;;;;;-6.30;96329.00;;;;5074353;28;20186;-60
2023/12/03 04:58:51;;;;;;;2.27;2.17;;;;;-6.20;96331.00;;;;5074458;28;20184;-60
2023/12/03 05:01:19;;;;;;;2.00;1.80;;;;;-6.30;96326.00;;;;5073646;28;20211;-60
2023/12/03 05:03:46;;;;;;;2.33;2.13;;;;;-6.40;96336.00;;;;5055307;28;20257;-59
2023/12/03 05:06:14;;;;;;;1.60;1.50;;;;;-6.40;96333.00;;;;5073586;28;20666;-61
2023/12/03 05:08:41;;;;;;;2.87;2.67;;;;;-6.50;96329.00;;;;5073657;28;20203;-60
2023/12/03 05:11:09;;;;;;;1.57;1.53;;;;;-6.40;96326.00;;;;5073513;28;20187;-60
2023/12/03 05:13:36;;;;;;;3.33;3.00;;;;;-6.50;96342.00;;;;5073660;28;20192;-60
2023/12/03 05:16:06;;;;;;;5.03;3.20;;;;;-6.50;96339.00;;;;5073568;28;20191;-60
2023/12/03 05:18:34;;;;;;;3.93;3.43;;;;;-6.60;96337.00;;;;5073777;28;20655;-60
2023/12/03 05:21:01;;;;;;;3.00;2.80;;;;;-6.60;96342.00;;;;5073439;28;20188;-60
2023/12/03 05:23:29;;;;;;;2.03;1.93;;;;;-6.60;96344.00;;;;5073253;28;20223;-60
2023/12/03 05:25:57;;;;;;;2.90;2.63;;;;;-6.60;96344.00;;;;5073569;28;20195;-60
2023/12/03 05:28:24;;;;;;;5.00;2.40;;;;;-6.70;96347.00;;;;5073374;28;20618;-60
2023/12/03 05:30:52;;;;;;;3.43;2.33;;;;;-6.70;96353.00;;;;5073358;28;20195;-60
2023/12/03 05:33:20;;;;;;;1.80;1.70;;;;;-6.60;96349.00;;;;5073600;28;20592;-60
2023/12/03 05:35:48;;;;;;;3.23;2.40;;;;;-6.60;96352.00;;;;5073356;28;20207;-60
2023/12/03 05:38:15;;;;;;;5.03;3.37;;;;;-6.60;96360.00;;;;5073286;28;20191;-60
2023/12/03 05:40:43;;;;;;;3.63;2.67;;;;;-6.70;96346.00;;;;5073173;28;20699;-60
2023/12/03 05:43:10;;;;;;;5.27;3.23;;;;;-6.60;96351.00;;;;5073371;28;20230;-60
2023/12/03 05:45:38;;;;;;;3.50;2.90;;;;;-6.60;96353.00;;;;5073151;28;20217;-60
2023/12/03 05:48:06;;;;;;;3.37;3.07;;;;;-6.70;96361.00;;;;5073138;28;20191;-60
2023/12/03 05:50:35;;;;;;;4.30;3.10;;;;;-6.50;96350.00;;;;5073352;28;20651;-60
2023/12/03 05:53:02;;;;;;;2.20;2.10;;;;;-6.50;96358.00;;;;5073451;28;20548;-60
2023/12/03 05:55:30;;;;;;;7.30;3.80;;;;;-6.60;96360.00;;;;5073327;28;20188;-61
2023/12/03 05:57:57;;;;;;;4.07;3.33;;;;;-6.80;96360.00;;;;5073302;28;20691;-61
2023/12/03 06:00:25;;;;;;;2.53;2.33;;;;;-6.70;96362.00;;;;5073763;28;20199;-62
2023/12/03 06:02:53;;;;;;;2.00;1.80;;;;;-6.90;96368.00;;;;5073233;28;20219;-61
2023/12/03 06:05:20;;;;;;;3.30;2.73;;;;;-6.80;96363.00;;;;5073450;28;20227;-61
2023/12/03 06:07:49;;;;;;;2.73;2.53;;;;;-6.70;96369.00;;;;5073156;28;20191;-60
2023/12/03 06:10:16;;;;;;;5.40;3.17;;;;;-6.80;96367.00;;;;5073197;28;20214;-61
2023/12/03 06:12:44;;;;;;;3.57;3.10;;;;;-6.90;96356.00;;;;5073173;28;20211;-61
2023/12/03 06:15:11;;;;;;;4.07;2.80;;;;;-7.00;96373.00;;;;5073238;28;20593;-61
2023/12/03 06:17:39;;;;;;;2.50;2.30;;;;;-7.10;96374.00;;;;5077119;28;20194;-61
2023/12/03 06:20:08;;;;;;;3.43;3.17;;;;;-7.00;96385.00;;;;5059115;28;20257;-61
2023/12/03 06:22:36;;;;;;;4.90;2.93;;;;;-7.00;96382.00;;;;5076785;28;20223;-60
2023/12/03 06:25:06;;;;;;;6.13;2.87;;;;;-7.20;96376.00;;;;5076932;28;20191;-61
2023/12/03 06:27:34;;;;;;;2.70;2.50;;;;;-7.20;96387.00;;;;5076911;28;20219;-61
2023/12/03 06:30:01;;;;;;;1.70;1.60;;;;;-7.30;96384.00;;;;5077098;28;20192;-62
2023/12/03 06:32:29;;;;;;;2.50;2.30;;;;;-7.30;96386.00;;;;5077840;28;20218;-61
2023/12/03 06:34:57;;;;;;;3.10;2.90;;;;;-7.40;96382.00;;;;5077021;28;20191;-61
2023/12/03 06:37:24;;;;;;;2.47;2.33;;;;;-7.50;96391.00;;;;5076875;28;20191;-61
2023/12/03 06:39:52;;;;;;;2.87;2.67;;;;;-7.50;96387.00;;;;5076941;28;20195;-61
2023/12/03 06:42:21;;;;;;;2.07;1.93;;;;;-7.40;96394.00;;;;5077265;28;20310;-61
2023/12/03 06:44:48;;;;;;;3.03;2.73;;;;;-7.50;96396.00;;;;5076731;28;20222;-61
2023/12/03 06:47:15;;;;;;;3.67;3.30;;;;;-7.40;96394.00;;;;5076723;28;20199;-61
2023/12/03 06:49:43;;;;;;;3.03;2.77;;;;;-7.10;96390.00;;;;5076402;28;20191;-61
2023/12/03 06:52:10;;;;;;;6.80;2.10;;;;;-7.10;96392.00;;;;5076065;28;20215;-60
2023/12/03 06:54:38;;;;;;;1.30;1.30;;;;;-7.10;96387.00;;;;5076485;28;20191;-61
2023/12/03 06:57:06;;;;;;;3.17;2.13;;;;;-7.00;96388.00;;;;5058358;28;20208;-60
2023/12/03 06:59:35;;;;;;;2.10;2.00;;;;;-7.00;96385.00;;;;5076313;28;20191;-60
2023/12/03 07:02:02;;;;;;;3.70;3.37;;;;;-7.00;96387.00;;;;5075997;28;20226;-60
2023/12/03 07:04:30;;;;;;;4.20;3.77;;;;;-7.00;96396.00;;;;5076093;28;20215;-60
2023/12/03 07:06:57;;;;;;;6.57;5.40;;;;;-7.00;96384.00;;;;5076186;28;20188;-61
2023/12/03 07:09:25;;;;;;;5.03;4.63;;;;;-7.00;96385.00;;;;5076249;28;20549;-60
2023/12/03 07:11:52;;;;;;;8.97;6.40;;;;;-6.80;96390.00;;;;5075930;28;20218;-60
2023/12/03 07:14:19;;;;;;;8.63;5.30;;;;;-6.80;96392.00;;;;5076141;28;20187;-60
2023/12/03 07:16:48;;;;;;;6.63;4.90;;;;;-6.80;96385.00;;;;5076287;28;20543;-60
2023/12/03 07:19:17;;;;;;;5.60;4.17;;;;;-6.90;96401.00;;;;5075964;28;20195;-60
2023/12/03 07:21:47;;;;;;;5.40;4.93;;;;;-7.00;96383.00;;;;5075802;28;20215;-61
2023/12/03 07:24:14;;;;;;;4.93;2.93;;;;;-6.90;96391.00;;;;5075653;28;20211;-61
2023/12/03 07:26:44;;;;;;;3.47;3.23;;;;;-6.80;96398.00;;;;5075231;28;20203;-61
2023/12/03 07:29:12;;;;;;;3.40;3.10;;;;;-6.90;96410.00;;;;5075707;28;20191;-61
2023/12/03 07:31:39;;;;;;;4.10;3.50;;;;;-7.00;96402.00;;;;5075572;28;20654;-61
2023/12/03 07:34:08;;;;;;;4.10;2.93;;;;;-6.90;96415.00;;;;5075673;28;20211;-61
2023/12/03 07:36:36;;;;;;;4.80;3.00;;;;;-6.90;96402.00;;;;5075484;28;20192;-61
2023/12/03 07:39:03;;;;;;;2.27;2.07;;;;;-6.80;96411.00;;;;5075576;28;20188;-61
2023/12/03 07:41:32;;;;;;;2.70;2.50;;;;;-6.70;96410.00;;;;5075555;28;20338;-61
2023/12/03 07:43:59;;;;;;;3.00;2.77;;;;;-6.50;96410.00;;;;5075307;28;20223;-60
2023/12/03 07:46:27;;;;;;;3.13;2.90;;;;;-6.40;96419.00;;;;5075970;28;20535;-61
2023/12/03 07:48:54;;;;;;;5.27;3.57;;;;;-6.40;96420.00;;;;5076038;28;20196;-62
2023/12/03 07:51:23;;;;;;;2.53;2.33;;;;;-6.30;96421.00;;;;5075514;28;20195;-60
2023/12/03 07:53:50;;;;;;;3.73;2.40;;;;;-6.20;96419.00;;;;5075359;28;20188;-60
2023/12/03 07:56:18;;;;;;;2.07;1.97;;;;;-6.20;96418.00;;;;5075196;28;20203;-60
2023/12/03 07:58:45;;;;;;;2.70;2.50;;;;;-6.10;96431.00;;;;5075087;28;20199;-63
2023/12/03 08:01:13;;;;;;;2.73;2.53;;;;;-5.90;96428.00;;;;5074948;28;20204;-61
2023/12/03 08:03:40;;;;;;;2.33;2.23;;;;;-5.90;96427.00;;;;5074943;28;20211;-61
2023/12/03 08:06:09;;;;;;;1.63;1.53;;;;;-5.80;96437.00;;;;5074926;28;20195;-61
2023/12/03 08:08:38;;;;;;;4.73;2.70;;;;;-5.70;96425.00;;;;5074855;28;20198;-61
2023/12/03 08:11:06;;;;;;;4.07;2.23;;;;;-5.50;96431.00;;;;5075015;28;20195;-61
2023/12/03 08:13:33;;;;;;;1.73;1.50;;;;;-5.60;96434.00;;;;5074907;28;20545;-61
2023/12/03 08:16:04;;;;;;;3.07;2.77;;;;;-5.50;96436.00;;;;5074913;28;20191;-61
2023/12/03 08:18:32;;;;;;;4.47;3.73;;;;;-5.50;96430.00;;;;5074717;28;20190;-61
2023/12/03 08:20:59;;;;;;;1.30;1.30;;;;;-5.40;96438.00;;;;5074591;28;20192;-61
2023/12/03 08:23:27;;;;;;;2.57;2.40;;;;;-5.30;96431.00;;;;5074628;28;20245;-61
2023/12/03 08:25:56;;;;;;;6.07;2.80;;;;;-5.30;96434.00;;;;5074845;28;20189;-61
2023/12/03 08:28:23;;;;;;;2.13;2.07;;;;;-5.20;96427.00;;;;5075005;28;20229;-61
2023/12/03 08:30:51;;;;;;;2.00;1.87;;;;;-5.10;96430.00;;;;5074334;28;20237;-61
2023/12/03 08:33:18;;;;;;;4.10;3.43;;;;;-4.90;96438.00;;;;5056291;28;20219;-61
2023/12/03 08:35:45;;;;;;;2.70;2.50;;;;;-4.90;96430.00;;;;5074661;28;20191;-61
2023/12/03 08:38:13;;;;;;;2.20;2.03;;;;;-5.20;96439.00;;;;5073751;28;20551;-61
2023/12/03 08:40:40;;;;;;;1.83;1.73;;;;;-5.20;96433.00;;;;5074369;28;20231;-61
2023/12/03 08:43:09;;;;;;;3.03;2.83;;;;;-5.30;96427.00;;;;5074134;28;20213;-61
2023/12/03 08:45:37;;;;;;;2.23;2.13;;;;;-5.30;96433.00;;;;5074248;28;20278;-61
2023/12/03 08:48:04;;;;;;;1.57;1.53;;;;;-5.00;96448.00;;;;5074032;28;20193;-61
2023/12/03 08:50:32;;;;;;;2.80;2.37;;;;;-5.10;96433.00;;;;5074512;28;20191;-61
2023/12/03 08:53:00;;;;;;;2.47;2.30;;;;;-5.30;96438.00;;;;5074077;28;20760;-61
2023/12/03 08:55:27;;;;;;;1.77;1.67;;;;;-5.20;96446.00;;;;5074801;28;20200;-61
2023/12/03 08:57:55;;;;;;;2.07;1.97;;;;;-5.10;96433.00;;;;5074918;28;20204;-60
2023/12/03 09:00:24;;;;;;;2.23;2.03;;;;;-5.10;96433.00;;;;5074872;28;20254;-60
2023/12/03 09:02:52;;;;;;;2.60;2.30;;;;;-5.10;96430.00;;;;5075410;28;20217;-61
2023/12/03 09:05:19;;;;;;;3.20;2.87;;;;;-4.70;96432.00;;;;5075681;28;20226;-62
2023/12/03 09:07:46;;;;;;;3.13;2.87;;;;;-4.60;96429.00;;;;5074922;28;20192;-61
2023/12/03 09:10:14;;;;;;;1.33;1.33;;;;;-4.30;96432.00;;;;5074660;28;20252;-62
2023/12/03 09:12:42;;;;;;;2.60;2.40;;;;;-4.00;96431.00;;;;5074684;28;20751;-61
2023/12/03 09:15:11;;;;;;;2.87;2.43;;;;;-3.80;96415.00;;;;5074078;28;20196;-61
2023/12/03 09:17:40;;;;;;;3.07;2.27;;;;;-3.70;96424.00;;;;5074074;28;20268;-61
2023/12/03 09:20:08;;;;;;;3.33;3.07;;;;;-3.30;96428.00;;;;5055630;28;20201;-61
2023/12/03 09:22:36;;;;;;;3.60;3.30;;;;;-3.30;96414.00;;;;5073613;28;20219;-61
2023/12/03 09:25:03;;;;;;;3.03;2.83;;;;;-3.10;96420.00;;;;5055595;28;20223;-61
2023/12/03 09:27:30;;;;;;;10.77;3.13;;;;;-3.20;96423.00;;;;5073621;28;20198;-61
2023/12/03 09:29:58;;;;;;;2.63;2.43;;;;;-3.10;96422.00;;;;5073209;28;20195;-62
2023/12/03 09:32:25;;;;;;;2.63;2.43;;;;;-3.50;96422.00;;;;5073382;28;20238;-62
2023/12/03 09:34:54;;;;;;;2.67;2.47;;;;;-3.90;96427.00;;;;5073300;28;20191;-61
2023/12/03 09:37:24;;;;;;;2.77;2.30;;;;;-3.70;96416.00;;;;5073458;28;20538;-61
2023/12/03 09:39:51;;;;;;;5.27;4.63;;;;;-3.60;96415.00;;;;5055373;28;20195;-61
2023/12/03 09:42:24;;;;;;;3.27;2.97;;;;;-3.30;96422.00;;;;5073247;28;20217;-61
2023/12/03 09:45:00;;;;;;;3.17;2.93;;;;;-3.00;96423.00;;;;5073596;28;20203;-61
2023/12/03 09:47:30;;;;;;;2.70;2.27;;;;;-3.00;96430.00;;;;5073468;28;20175;-61
2023/12/03 09:50:00;;;;;;;3.17;2.90;;;;;-2.90;96432.00;;;;5073285;28;20183;-61
2023/12/03 09:52:29;;;;;;;2.03;1.93;;;;;-2.50;96428.00;;;;5073083;28;20300;-61
2023/12/03 09:54:59;;;;;;;1.70;1.60;;;;;-2.40;96438.00;;;;5073016;28;20498;-62
2023/12/03 09:57:27;;;;;;;3.97;3.13;;;;;-2.30;96432.00;;;;5073225;28;20214;-61
2023/12/03 09:59:59;;;;;;;1.97;1.87;;;;;-2.10;96429.00;;;;5072893;28;20580;-62
2023/12/03 10:02:29;;;;;;;2.97;2.77;;;;;-2.40;96437.00;;;;5073099;28;20219;-61
2023/12/03 10:04:58;;;;;;;1.80;1.70;;;;;-2.30;96436.00;;;;5072799;28;20239;-61
2023/12/03 10:07:29;;;;;;;2.07;1.97;;;;;-2.20;96435.00;;;;5072823;28;20215;-62
2023/12/03 10:09:58;;;;;;;4.20;1.87;;;;;-2.40;96442.00;;;;5073371;28;20630;-62
2023/12/03 10:12:31;;;;;;;2.80;2.27;;;;;-2.10;96430.00;;;;5072801;28;20217;-66
2023/12/03 10:14:59;;;;;;;2.23;2.03;;;;;-1.60;96438.00;;;;5073575;28;20182;-61
2023/12/03 10:17:27;;;;;;;1.87;1.77;;;;;-1.40;96430.00;;;;5073078;28;20522;-61
2023/12/03 10:19:56;;;;;;;1.77;1.67;;;;;-1.10;96424.00;;;;5072848;28;20221;-62
2023/12/03 10:22:35;;;;;;;4.53;3.40;;;;;-1.30;96430.00;;;;5073505;28;20686;-62
2023/12/03 10:25:03;;;;;;;3.00;2.30;;;;;-1.20;96437.00;;;;5073169;28;20199;-62
2023/12/03 10:27:30;;;;;;;13.20;7.67;;;;;-1.30;96432.00;;;;5073420;28;20196;-61
2023/12/03 10:29:58;;;;;;;4.77;4.03;;;;;-1.10;96425.00;;;;5073019;28;20223;-62
2023/12/03 10:32:27;;;;;;;2.07;1.97;;;;;-1.10;96425.00;;;;5072622;28;20211;-62
2023/12/03 10:34:56;;;;;;;4.47;2.77;;;;;-1.40;96427.00;;;;5073109;28;20215;-62
2023/12/03 10:37:23;;;;;;;1.73;1.63;;;;;-1.00;96415.00;;;;5072766;28;20551;-62
2023/12/03 10:39:52;;;;;;;1.97;1.87;;;;;-0.60;96415.00;;;;5072821;28;20195;-62
2023/12/03 10:42:19;;;;;;;3.67;3.03;;;;;-0.70;96416.00;;;;5072966;28;20286;-62
2023/12/03 10:44:47;;;;;;;2.33;2.17;;;;;-0.70;96403.00;;;;5072796;28;20212;-62
2023/12/03 10:47:15;;;;;;;3.40;3.10;;;;;-0.60;96406.00;;;;5073291;28;20195;-62
2023/12/03 10:49:45;;;;;;;8.00;2.87;;;;;-0.40;96395.00;;;;5072822;28;20227;-62
2023/12/03 10:52:13;;;;;;;2.20;1.97;;;;;0.30;96383.00;;;;5072855;28;20223;-62
2023/12/03 10:54:41;;;;;;;2.97;2.77;;;;;0.90;96386.00;;;;5072963;28;20187;-62
2023/12/03 10:57:10;;;;;;;2.17;1.77;;;;;1.30;96379.00;;;;5072794;28;20198;-62
2023/12/03 10:59:41;;;;;;;2.50;2.30;;;;;2.20;96366.00;;;;5072665;28;20238;-62
2023/12/03 11:02:11;;;;;;;6.27;3.40;;;;;3.50;96345.00;;;;5074181;28;20561;-62
2023/12/03 11:04:48;;;;;;;1.53;1.43;;;;;5.00;96324.00;;;;5076730;28;20220;-61
2023/12/03 11:07:18;;;;;;;2.00;1.90;;;;;5.80;96316.00;;;;5076215;28;20185;-63
2023/12/03 11:09:47;;;;;;;1.50;1.40;;;;;7.10;96327.00;;;;5076245;28;20195;-62
2023/12/03 11:12:18;;;;;;;2.13;2.03;;;;;8.40;96329.00;;;;5076238;28;20267;-62
2023/12/03 11:14:46;;;;;;;2.07;1.87;;;;;9.50;96321.00;;;;5076752;28;20203;-62
2023/12/03 11:17:20;;;;;;;1.37;1.37;;;;;10.20;96318.00;;;;5076154;28;20200;-62
2023/12/03 11:19:52;;;;;;;2.20;2.10;;;;;11.20;96322.00;;;;5075939;28;20183;-62
2023/12/03 11:22:31;;;;;;;2.30;2.20;;;;;11.90;96323.00;;;;5075963;28;20222;-62
2023/12/03 11:25:05;;;;;;;1.33;1.33;;;;;12.80;96327.00;;;;5075813;28;20207;-63
2023/12/03 11:27:33;;;;;;;1.40;1.40;;;;;13.70;96328.00;;;;5075793;28;20534;-63
2023/12/03 11:30:04;;;;;;;2.43;2.23;;;;;15.20;96316.00;;;;5075583;28;20214;-62
2023/12/03 11:32:31;;;;;;;1.63;1.53;;;;;15.90;96330.00;;;;5075430;28;20215;-61
2023/12/03 11:35:02;;;;;;;3.23;2.37;;;;;16.70;96335.00;;;;5075367;28;20282;-62
2023/12/03 11:37:31;;;;;;;1.93;1.83;;;;;18.20;96336.00;;;;5075828;28;20184;-61
2023/12/03 11:40:08;;;;;;;1.87;1.77;;;;;19.50;96334.00;;;;5075260;28;20199;-61
2023/12/03 11:42:43;;;;;;;3.70;2.30;;;;;20.40;96334.00;;;;5075287;28;20250;-61
2023/12/03 11:45:19;;;;;;;1.83;1.60;;;;;19.70;96333.00;;;;5075443;28;20592;-61
2023/12/03 11:48:08;;;;;;;1.17;1.13;;;;;20.20;96339.00;;;;5075923;28;20175;-62
2023/12/03 11:50:38;;;;;;;3.37;3.00;;;;;21.50;96327.00;;;;5075808;28;20554;-62
2023/12/03 11:53:06;;;;;;;2.50;2.30;;;;;21.40;96325.00;;;;5075483;28;20225;-62
2023/12/03 11:55:35;;;;;;;1.70;1.60;;;;;21.70;96327.00;;;;5075409;28;20196;-62
2023/12/03 11:58:07;;;;;;;1.20;1.20;;;;;22.50;96338.00;;;;5075377;28;20249;-62
2023/12/03 12:00:35;;;;;;;2.03;1.80;;;;;21.10;96329.00;;;;5075048;28;20200;-62
2023/12/03 12:03:06;;;;;;;3.20;2.43;;;;;22.20;96332.00;;;;5075091;28;20694;-62
2023/12/03 12:05:34;;;;;;;2.88;2.35;;;;;22.80;96327.00;;;;5075620;28;20176;-62
2023/12/03 12:08:03;;;;;;;5.25;2.40;;;;;24.00;96330.00;;;;5074913;28;20202;-62
2023/12/03 12:10:31;;;;;;;1.77;1.67;;;;;24.40;96321.00;;;;5074686;28;20229;-62
2023/12/03 12:13:00;;;;;;;2.03;1.92;;;;;23.60;96311.00;;;;5073547;28;20286;-62
2023/12/03 12:15:31;;;;;;;1.65;1.55;;;;;23.80;96314.00;;;;5074606;28;20570;-62
2023/12/03 12:17:58;;;;;;;2.25;1.98;;;;;25.90;96305.00;;;;5074934;28;20183;-62
2023/12/03 12:20:27;;;;;;;1.85;1.75;;;;;23.90;96307.00;;;;5075076;28;20195;-62
2023/12/03 12:22:54;;;;;;;2.92;2.28;;;;;24.70;96319.00;;;;5074453;28;20225;-62